Time;durP1;ratioP1;P1;durP2;ratioP2;P2;SDS_P1;SDS_P2;PMS_P1;PMS_P2;Temp;Humidity;BMP_temperature;BMP_pressure;BME280_temperature;BME280_humidity;BME280_pressure;Samples;Min_cycle;Max_cycle;Signal;HPM_P1;HPM_P2
2020/04/18 00:01:40;;;;;;;10.2;5.9;;;;;;;12.94;64.39648;936.7754;;;;
2020/04/18 00:04:09;;;;;;;12.9;5.9;;;;;;;12.95;64.41113;936.785;;;;
2020/04/18 00:07:40;;;;;;;9.4;5.9;;;;;;;12.92;64.40723;936.8018;;;;
2020/04/18 00:09:01;;;;;;;12.8;5.9;;;;;;;12.89;64.50488;936.8826;;;;
2020/04/18 00:11:37;;;;;;;14.1;6.3;;;;;;;12.74;65.05762;936.8394;;;;
2020/04/18 00:13:56;;;;;;;10.1;5.6;;;;;;;12.75;65.0918;936.7859;;;;
2020/04/18 00:18:47;;;;;;;11.8;5.6;;;;;;;12.61;65.11719;936.7593;;;;
2020/04/18 00:21:18;;;;;;;10.9;6.2;;;;;;;12.59;65.43555;936.7889;;;;
2020/04/18 00:23:43;;;;;;;13.2;6.7;;;;;;;12.57;65.58105;936.7291;;;;
2020/04/18 00:26:09;;;;;;;14.7;6.4;;;;;;;12.55;65.66992;936.7266;;;;
2020/04/18 00:28:34;;;;;;;14.8;6.1;;;;;;;12.45;65.95313;936.7283;;;;
2020/04/18 00:30:59;;;;;;;10.3;6.1;;;;;;;12.42;66.01758;936.7188;;;;
2020/04/18 00:33:26;;;;;;;10.1;5.7;;;;;;;12.17;66.91895;936.7068;;;;
2020/04/18 00:35:51;;;;;;;11.3;5.4;;;;;;;12.27;66.41895;936.6976;;;;
2020/04/18 00:38:19;;;;;;;11.9;5.5;;;;;;;12.1;67.03516;936.6957;;;;
2020/04/18 00:40:44;;;;;;;13.6;5.5;;;;;;;11.84;68.15039;936.6919;;;;
2020/04/18 00:43:12;;;;;;;10.5;6.1;;;;;;;11.87;68.12109;936.7031;;;;
2020/04/18 00:45:38;;;;;;;10.7;5.8;;;;;;;11.91;68.02441;936.6161;;;;
2020/04/18 00:48:07;;;;;;;11.2;5.7;;;;;;;11.95;67.73438;936.6936;;;;
2020/04/18 00:50:31;;;;;;;12.7;5.8;;;;;;;11.99;67.55566;936.6865;;;;
2020/04/18 00:53:00;;;;;;;12.1;6.8;;;;;;;11.93;67.67285;936.6314;;;;
2020/04/18 00:55:25;;;;;;;10.9;6.5;;;;;;;11.93;67.59277;936.6027;;;;
2020/04/18 00:57:54;;;;;;;14.7;6.8;;;;;;;11.97;67.39258;936.5477;;;;
2020/04/18 01:00:19;;;;;;;12.3;6.4;;;;;;;12.02;67.20605;936.6102;;;;
2020/04/18 01:02:47;;;;;;;13.8;6.3;;;;;;;12.02;67.25195;936.603;;;;
2020/04/18 01:05:28;;;;;;;11.9;6.1;;;;;;;11.94;67.43359;936.5005;;;;
2020/04/18 01:07:58;;;;;;;8.4;5.9;;;;;;;11.9;67.7373;936.5795;;;;
2020/04/18 01:10:24;;;;;;;10.7;5.8;;;;;;;11.83;67.96582;936.5323;;;;
2020/04/18 01:13:12;;;;;;;9.6;6;;;;;;;11.77;68.21875;936.5746;;;;
2020/04/18 01:15:40;;;;;;;10.6;5.4;;;;;;;11.86;67.87988;936.5611;;;;
2020/04/18 01:18:05;;;;;;;11.7;5.5;;;;;;;11.82;67.59863;936.5162;;;;
2020/04/18 01:20:35;;;;;;;10.7;5.5;;;;;;;11.7;68.07324;936.6041;;;;
2020/04/18 01:22:56;;;;;;;13.5;6;;;;;;;11.66;68.14453;936.4644;;;;
2020/04/18 01:25:22;;;;;;;13;6.3;;;;;;;11.69;68.15039;936.4883;;;;
2020/04/18 01:27:48;;;;;;;16.9;6.8;;;;;;;11.65;68.3623;936.5792;;;;
2020/04/18 01:30:13;;;;;;;13.4;6.4;;;;;;;11.58;68.625;936.4966;;;;
2020/04/18 01:32:39;;;;;;;10.8;5.8;;;;;;;11.57;68.63672;936.5173;;;;
2020/04/18 01:35:08;;;;;;;10.5;6;;;;;;;11.56;68.66699;936.5754;;;;
2020/04/18 01:37:30;;;;;;;12.3;5.9;;;;;;;11.44;69.15137;936.5536;;;;
2020/04/18 01:39:55;;;;;;;11.5;6;;;;;;;11.45;69.01563;936.568;;;;
2020/04/18 01:42:22;;;;;;;10.2;5.8;;;;;;;11.45;69.10742;936.5559;;;;
2020/04/18 01:44:49;;;;;;;8.9;5.7;;;;;;;11.4;69.2832;936.5236;;;;
2020/04/18 01:47:15;;;;;;;10.5;5.8;;;;;;;11.38;69.46191;936.5028;;;;
2020/04/18 01:49:40;;;;;;;11.9;6.3;;;;;;;11.27;69.60645;936.5845;;;;
2020/04/18 01:52:05;;;;;;;10.7;6.4;;;;;;;11.31;69.28027;936.5114;;;;
2020/04/18 01:54:30;;;;;;;11.8;6;;;;;;;11.28;69.27637;936.5711;;;;
2020/04/18 01:56:57;;;;;;;11;6.1;;;;;;;11.34;69.13574;936.5872;;;;
2020/04/18 01:59:22;;;;;;;11.4;6.1;;;;;;;11.31;68.98145;936.4954;;;;
2020/04/18 02:01:47;;;;;;;9;5.8;;;;;;;11.31;69.08398;936.5656;;;;
2020/04/18 02:04:15;;;;;;;10.4;6;;;;;;;11.34;68.91992;936.5538;;;;
2020/04/18 02:06:40;;;;;;;8.3;5.4;;;;;;;11.36;68.68164;936.5442;;;;
2020/04/18 02:09:06;;;;;;;12.7;5.9;;;;;;;11.37;68.67285;936.5681;;;;
2020/04/18 02:11:30;;;;;;;10.5;6.1;;;;;;;11.38;68.50293;936.5396;;;;
2020/04/18 02:13:56;;;;;;;9.5;5.8;;;;;;;11.35;68.48535;936.5625;;;;
2020/04/18 02:16:21;;;;;;;10.2;5.8;;;;;;;11.3;68.66113;936.6102;;;;
2020/04/18 02:18:46;;;;;;;12;5.6;;;;;;;11.28;68.7373;936.6467;;;;
2020/04/18 02:21:11;;;;;;;12.1;6.2;;;;;;;11.18;69.20313;936.6317;;;;
2020/04/18 02:23:36;;;;;;;12.5;6.1;;;;;;;11.07;69.71191;936.5874;;;;
2020/04/18 02:26:01;;;;;;;12.8;6.3;;;;;;;11.15;69.63184;936.6619;;;;
2020/04/18 02:28:26;;;;;;;10.6;5.7;;;;;;;11.11;69.61426;936.6713;;;;
2020/04/18 02:30:52;;;;;;;13.4;6;;;;;;;11.23;69.26855;936.6513;;;;
2020/04/18 02:33:17;;;;;;;9.6;5.9;;;;;;;11.22;69.3457;936.6808;;;;
2020/04/18 02:35:42;;;;;;;10.6;5.8;;;;;;;11.22;69.23145;936.6409;;;;
2020/04/18 02:38:07;;;;;;;12.2;5.8;;;;;;;11.27;69.21777;936.5925;;;;
2020/04/18 02:40:32;;;;;;;9.7;5.2;;;;;;;11.31;68.69727;936.6772;;;;
2020/04/18 02:42:57;;;;;;;12.2;6;;;;;;;11.23;68.86719;936.6625;;;;
2020/04/18 02:45:23;;;;;;;9.6;5.7;;;;;;;10.94;69.92969;936.6788;;;;
2020/04/18 02:47:48;;;;;;;10.5;6.2;;;;;;;10.8;70.67188;936.6658;;;;
2020/04/18 02:50:13;;;;;;;12.1;6.6;;;;;;;10.86;70.44238;936.6346;;;;
2020/04/18 02:52:38;;;;;;;14;7.4;;;;;;;10.94;70.23828;936.6167;;;;
2020/04/18 02:55:03;;;;;;;16.9;7;;;;;;;10.89;70.44824;936.6937;;;;
2020/04/18 02:57:32;;;;;;;11.7;6.3;;;;;;;10.89;70.45801;936.6945;;;;
2020/04/18 02:59:57;;;;;;;12.3;6.3;;;;;;;10.88;70.51367;936.7352;;;;
2020/04/18 03:02:25;;;;;;;13.9;6.9;;;;;;;10.96;70.24219;936.671;;;;
2020/04/18 03:04:50;;;;;;;11.5;6.2;;;;;;;10.89;70.53809;936.7025;;;;
2020/04/18 03:07:18;;;;;;;10.6;6;;;;;;;10.8;71.07129;936.6165;;;;
2020/04/18 03:09:43;;;;;;;12.4;6;;;;;;;10.88;70.68652;936.6395;;;;
2020/04/18 03:12:09;;;;;;;15.9;6.3;;;;;;;10.88;70.76465;936.6794;;;;
2020/04/18 03:14:36;;;;;;;13.6;5.9;;;;;;;10.87;70.75195;936.6609;;;;
2020/04/18 03:17:03;;;;;;;11.8;5.8;;;;;;;10.89;70.88086;936.7025;;;;
2020/04/18 03:19:24;;;;;;;11.9;6.2;;;;;;;10.96;70.72266;936.7068;;;;
2020/04/18 03:21:49;;;;;;;10.2;5.6;;;;;;;10.97;70.62012;936.6822;;;;
2020/04/18 03:24:14;;;;;;;10.4;5.8;;;;;;;10.99;70.64746;936.7253;;;;
2020/04/18 03:26:39;;;;;;;14.5;6.3;;;;;;;11.09;70.08008;936.7198;;;;
2020/04/18 03:29:04;;;;;;;19;6.7;;;;;;;11.05;70.10742;936.808;;;;
2020/04/18 03:31:30;;;;;;;13.8;6.5;;;;;;;11.09;69.86328;936.7978;;;;
2020/04/18 03:33:55;;;;;;;13.8;6.1;;;;;;;11.07;69.88184;936.8631;;;;
2020/04/18 03:36:20;;;;;;;11.3;6;;;;;;;11.13;69.86914;936.8976;;;;
2020/04/18 03:38:45;;;;;;;15.9;6;;;;;;;11.23;69.37012;936.9072;;;;
2020/04/18 03:41:10;;;;;;;11;5.9;;;;;;;11.24;69.08594;936.9861;;;;
2020/04/18 03:43:35;;;;;;;12.7;6;;;;;;;11.19;69.22754;936.9139;;;;
2020/04/18 03:46:01;;;;;;;11.5;5.6;;;;;;;11.14;69.38965;936.9041;;;;
2020/04/18 03:48:26;;;;;;;12.6;5.4;;;;;;;11.1;69.37305;936.9749;;;;
2020/04/18 03:50:51;;;;;;;9.9;5.7;;;;;;;10.93;69.97266;936.9895;;;;
2020/04/18 03:53:16;;;;;;;13.3;5.7;;;;;;;10.74;70.85742;937.0111;;;;
2020/04/18 03:55:41;;;;;;;11.8;5.3;;;;;;;10.74;70.67383;937.0399;;;;
2020/04/18 03:58:06;;;;;;;10.1;5.5;;;;;;;10.71;70.98926;937.0197;;;;
2020/04/18 04:02:33;;;;;;;8.4;5.4;;;;;;;10.82;70.6875;937.0184;;;;
2020/04/18 04:04:58;;;;;;;10.1;5.5;;;;;;;10.88;70.25098;937.0139;;;;
2020/04/18 04:07:23;;;;;;;13.4;5.5;;;;;;;10.94;70.00977;936.9895;;;;
2020/04/18 04:09:49;;;;;;;15.4;6;;;;;;;10.95;69.98828;936.9681;;;;
2020/04/18 04:12:13;;;;;;;14;6.5;;;;;;;10.89;70.59668;937.0251;;;;
2020/04/18 04:14:39;;;;;;;14.9;7.2;;;;;;;11.02;69.82813;937.0366;;;;
2020/04/18 04:17:04;;;;;;;15.7;7.1;;;;;;;11.01;69.82813;937.0245;;;;
2020/04/18 04:19:29;;;;;;;14.6;6.6;;;;;;;11.06;69.66406;937.0814;;;;
2020/04/18 04:21:54;;;;;;;13;6.6;;;;;;;11.12;69.53613;937.0936;;;;
2020/04/18 04:24:19;;;;;;;15.3;6;;;;;;;11.18;69.37402;937.125;;;;
2020/04/18 04:26:44;;;;;;;11;6.1;;;;;;;11.07;69.74414;937.2305;;;;
2020/04/18 04:29:10;;;;;;;15;7.3;;;;;;;11.02;69.97656;937.2245;;;;
2020/04/18 04:31:35;;;;;;;15.6;9.1;;;;;;;11.07;69.96289;937.2233;;;;
2020/04/18 04:34:00;;;;;;;22.1;11;;;;;;;11.04;69.87695;937.3259;;;;
2020/04/18 04:36:25;;;;;;;14.4;8.1;;;;;;;10.91;70.45117;937.2292;;;;
2020/04/18 04:38:53;;;;;;;23;8.4;;;;;;;10.85;70.70313;937.3133;;;;
2020/04/18 04:41:20;;;;;;;15.4;8.4;;;;;;;11;70.20313;937.248;;;;
2020/04/18 04:43:45;;;;;;;11.9;6.1;;;;;;;11.09;69.72559;937.3262;;;;
2020/04/18 04:46:14;;;;;;;15.1;6.4;;;;;;;11.08;70.00879;937.3436;;;;
2020/04/18 04:48:38;;;;;;;16.3;6.3;;;;;;;10.77;71.37402;937.3761;;;;
2020/04/18 04:51:18;;;;;;;10.7;5.8;;;;;;;10.85;71.26367;937.3148;;;;
2020/04/18 04:53:30;;;;;;;11.8;6.1;;;;;;;10.98;70.75879;937.3061;;;;
2020/04/18 04:55:55;;;;;;;13.3;6.1;;;;;;;11.08;71.02734;937.4305;;;;
2020/04/18 04:58:27;;;;;;;15.8;5.9;;;;;;;11.25;69.59082;937.3456;;;;
2020/04/18 05:00:54;;;;;;;13.3;6.1;;;;;;;11.32;69.16699;937.3954;;;;
2020/04/18 05:03:20;;;;;;;11.2;5.6;;;;;;;11.47;68.82617;937.4275;;;;
2020/04/18 05:05:45;;;;;;;11;5.3;;;;;;;11.42;68.80566;937.4161;;;;
2020/04/18 05:08:14;;;;;;;17.9;6.7;;;;;;;11.22;69.7002;937.4786;;;;
2020/04/18 05:10:39;;;;;;;19.8;6.2;;;;;;;11.34;69.25195;937.4019;;;;
2020/04/18 05:13:04;;;;;;;12.9;5.4;;;;;;;11.43;68.78516;937.4824;;;;
2020/04/18 05:15:29;;;;;;;12.3;5.5;;;;;;;11.5;68.75;937.5393;;;;
2020/04/18 05:17:54;;;;;;;15.2;5.7;;;;;;;11.59;68.64941;937.5133;;;;
2020/04/18 05:20:20;;;;;;;13.9;5.7;;;;;;;11.74;67.97461;937.5398;;;;
2020/04/18 05:22:45;;;;;;;14.9;6.1;;;;;;;11.92;67.37402;937.4716;;;;
2020/04/18 05:25:10;;;;;;;14.7;6.1;;;;;;;12.09;67.28613;937.5472;;;;
2020/04/18 05:27:35;;;;;;;12.8;5.8;;;;;;;12.31;66.28809;937.5496;;;;
2020/04/18 05:30:00;;;;;;;14;5.9;;;;;;;12.43;66.08789;937.5069;;;;
2020/04/18 05:32:25;;;;;;;13.4;5.4;;;;;;;12.58;65.33105;937.527;;;;
2020/04/18 05:34:51;;;;;;;10.6;5.1;;;;;;;12.82;64.65625;937.486;;;;
2020/04/18 05:37:16;;;;;;;25.6;6.7;;;;;;;13.22;63.67969;937.5416;;;;
2020/04/18 05:39:41;;;;;;;17.5;5.7;;;;;;;13.62;61.77344;937.5842;;;;
2020/04/18 05:42:06;;;;;;;11.6;4.8;;;;;;;14.1;60.11426;937.5306;;;;
2020/04/18 05:44:31;;;;;;;11.1;4.5;;;;;;;14.49;57.39063;937.5829;;;;
2020/04/18 05:46:56;;;;;;;13;4.8;;;;;;;14.62;57.14355;937.5022;;;;
2020/04/18 05:49:21;;;;;;;12.3;5.2;;;;;;;14.73;56.77734;937.5342;;;;
2020/04/18 05:51:46;;;;;;;12;5.1;;;;;;;15.02;56.28418;937.5444;;;;
2020/04/18 05:54:14;;;;;;;13.1;5.3;;;;;;;15.55;54.66699;937.522;;;;
2020/04/18 05:56:39;;;;;;;13.2;6.1;;;;;;;15.9;53.23047;937.5912;;;;
2020/04/18 05:59:04;;;;;;;10.9;5.3;;;;;;;15.71;53.83105;937.5313;;;;
2020/04/18 06:01:29;;;;;;;14.4;5.5;;;;;;;16.09;53.18359;937.5939;;;;
2020/04/18 06:03:56;;;;;;;11.4;4.8;;;;;;;16.44;51.22363;937.593;;;;
2020/04/18 06:06:21;;;;;;;13.2;5.1;;;;;;;16.98;50.99805;937.6106;;;;
2020/04/18 06:08:46;;;;;;;15.2;5.1;;;;;;;17.32;49.29688;937.6465;;;;
2020/04/18 06:11:11;;;;;;;11.1;4.9;;;;;;;17.12;50.50293;937.6794;;;;
2020/04/18 06:16:06;;;;;;;8.2;3.8;;;;;;;16.82;49.65918;937.6573;;;;
2020/04/18 06:18:33;;;;;;;8.7;4.1;;;;;;;17.21;49.59766;937.6368;;;;
2020/04/18 06:20:58;;;;;;;11.8;4.5;;;;;;;17.03;48.98633;937.6633;;;;
2020/04/18 06:23:26;;;;;;;9.9;4.2;;;;;;;17.68;46.36621;937.5547;;;;
2020/04/18 06:25:54;;;;;;;10;3.5;;;;;;;17.68;45.52051;937.6512;;;;
2020/04/18 06:28:22;;;;;;;11.2;3.9;;;;;;;17.93;45.69629;937.7169;;;;
2020/04/18 06:30:51;;;;;;;8.6;3.5;;;;;;;18.29;44.62891;937.7198;;;;
2020/04/18 06:33:16;;;;;;;10.2;3.7;;;;;;;18.45;44.94727;937.6965;;;;
2020/04/18 06:35:41;;;;;;;11.3;3.9;;;;;;;19.8;41.63379;937.6846;;;;
2020/04/18 06:38:06;;;;;;;8.5;3.7;;;;;;;21;39.06934;937.6197;;;;
2020/04/18 06:40:31;;;;;;;9.4;3.5;;;;;;;22.53;36.15332;937.5988;;;;
2020/04/18 06:42:56;;;;;;;8.8;3.2;;;;;;;23.76;33.91211;937.6165;;;;
2020/04/18 06:45:22;;;;;;;11.8;3.5;;;;;;;25.1;31.85352;937.6516;;;;
2020/04/18 06:47:47;;;;;;;6.8;3.1;;;;;;;25.81;30.6748;937.6033;;;;
2020/04/18 06:50:12;;;;;;;6.9;2.9;;;;;;;25.39;31.5791;937.5941;;;;
2020/04/18 06:52:37;;;;;;;6.7;2.8;;;;;;;24.34;33.20215;937.5574;;;;
2020/04/18 06:55:02;;;;;;;9;2.9;;;;;;;23.35;34.75;937.5427;;;;
2020/04/18 06:57:27;;;;;;;9;3.1;;;;;;;22.93;35.99707;937.5308;;;;
2020/04/18 06:59:52;;;;;;;8.4;3.1;;;;;;;23.21;36.30273;937.561;;;;
2020/04/18 07:02:17;;;;;;;8.5;3;;;;;;;23.23;36.15137;937.5386;;;;
2020/04/18 07:04:43;;;;;;;11;3;;;;;;;23.53;35.63477;937.5136;;;;
2020/04/18 07:07:08;;;;;;;9.4;2.9;;;;;;;23.42;34.83789;937.5137;;;;
2020/04/18 07:09:33;;;;;;;8.5;3.2;;;;;;;24.33;35.0625;937.4677;;;;
2020/04/18 07:11:58;;;;;;;7.6;2.9;;;;;;;23.89;35.02734;937.4626;;;;
2020/04/18 07:14:23;;;;;;;8.2;2.7;;;;;;;23.62;35.10156;937.4473;;;;
2020/04/18 07:16:48;;;;;;;11.5;2.8;;;;;;;24.61;33.45801;937.4077;;;;
2020/04/18 07:19:14;;;;;;;11.6;3.1;;;;;;;25.44;30.73145;937.3561;;;;
2020/04/18 07:21:39;;;;;;;11.5;3.1;;;;;;;25.68;30.44141;937.3489;;;;
2020/04/18 07:24:04;;;;;;;10.4;3.4;;;;;;;26.69;28.46094;937.4001;;;;
2020/04/18 07:26:29;;;;;;;7.8;2.7;;;;;;;26.88;28.66309;937.3647;;;;
2020/04/18 07:28:54;;;;;;;9.2;2.8;;;;;;;27.11;27.99023;937.3796;;;;
2020/04/18 07:31:19;;;;;;;5.3;2.6;;;;;;;27.14;28.44238;937.3393;;;;
2020/04/18 07:33:47;;;;;;;5.3;2.7;;;;;;;28.26;28.09766;937.2498;;;;
2020/04/18 07:36:13;;;;;;;6.5;2.6;;;;;;;28.33;27.09082;937.3081;;;;
2020/04/18 07:38:43;;;;;;;7.1;2.5;;;;;;;28.24;26.19434;937.2745;;;;
2020/04/18 07:41:08;;;;;;;6.8;2.6;;;;;;;28.24;27.25195;937.2675;;;;
2020/04/18 07:43:37;;;;;;;6.6;2.3;;;;;;;29.06;24.75293;937.2745;;;;
2020/04/18 07:46:01;;;;;;;7.4;2.6;;;;;;;28.77;24.83301;937.2239;;;;
2020/04/18 07:48:28;;;;;;;7.3;2.7;;;;;;;28.83;24.66895;937.2203;;;;
2020/04/18 07:50:54;;;;;;;6.7;2.7;;;;;;;30.27;25.6084;937.2217;;;;
2020/04/18 07:53:23;;;;;;;6;2.4;;;;;;;31.05;22.72168;937.1231;;;;
2020/04/18 07:55:49;;;;;;;8.9;2.6;;;;;;;30.91;23.16992;937.1686;;;;
2020/04/18 07:58:15;;;;;;;6.3;2.6;;;;;;;31.52;21.68066;937.1417;;;;
2020/04/18 08:00:49;;;;;;;8.3;2.6;;;;;;;33.07;20.1084;937.0943;;;;
2020/04/18 08:03:15;;;;;;;7.9;2.5;;;;;;;33.29;20.23828;937.1489;;;;
2020/04/18 08:05:44;;;;;;;7.9;2.5;;;;;;;31.6;20.47461;937.0988;;;;
2020/04/18 08:08:09;;;;;;;8.4;2.5;;;;;;;29.98;22.16797;937.1066;;;;
2020/04/18 08:10:37;;;;;;;6.2;2.4;;;;;;;29.85;22.49414;937.0715;;;;
2020/04/18 08:13:02;;;;;;;5.8;2.2;;;;;;;29.77;23.46875;937.0353;;;;
2020/04/18 08:15:27;;;;;;;8.8;2.6;;;;;;;30.84;22.12598;937.051;;;;
2020/04/18 08:17:55;;;;;;;8.8;2.5;;;;;;;32.22;20.55078;937.0095;;;;
2020/04/18 08:20:20;;;;;;;6.3;2.6;;;;;;;30.89;21.06445;936.9908;;;;
2020/04/18 08:22:49;;;;;;;7.2;2.4;;;;;;;30.8;21.62207;936.9487;;;;
2020/04/18 08:25:15;;;;;;;11.3;2.7;;;;;;;31.37;19.55469;936.8969;;;;
2020/04/18 08:27:43;;;;;;;12.1;2.7;;;;;;;30.86;20.87207;936.9002;;;;
2020/04/18 08:30:08;;;;;;;8.6;2.4;;;;;;;32.51;21.08008;936.8417;;;;
2020/04/18 08:32:33;;;;;;;7.6;2.3;;;;;;;32.93;20.23535;936.8206;;;;
2020/04/18 08:34:58;;;;;;;5.5;2.2;;;;;;;34.02;19.0918;936.8127;;;;
2020/04/18 08:37:25;;;;;;;5.6;2.2;;;;;;;34.73;18.75879;936.8496;;;;
2020/04/18 08:39:50;;;;;;;8.4;2.2;;;;;;;33.89;19.00195;936.7725;;;;
2020/04/18 08:42:18;;;;;;;5;1.9;;;;;;;33.54;18.73438;936.7394;;;;
2020/04/18 08:44:43;;;;;;;7.9;2.3;;;;;;;34.03;18.85156;936.7722;;;;
2020/04/18 08:47:11;;;;;;;8.3;2.3;;;;;;;35.42;16.8916;936.7863;;;;
2020/04/18 08:49:37;;;;;;;7.5;2.3;;;;;;;36.22;17.30859;936.7076;;;;
2020/04/18 08:52:02;;;;;;;7.3;2.3;;;;;;;35.06;16.70996;936.6763;;;;
2020/04/18 08:54:27;;;;;;;6.4;2.4;;;;;;;34.91;17.05469;936.6454;;;;
2020/04/18 08:56:52;;;;;;;6.1;1.9;;;;;;;34.76;17.02441;936.6214;;;;
2020/04/18 08:59:17;;;;;;;8.6;2.1;;;;;;;33.33;18.17285;936.5565;;;;
2020/04/18 09:01:42;;;;;;;5.5;2;;;;;;;33.95;17.05469;936.5669;;;;
2020/04/18 09:04:07;;;;;;;6.3;2.4;;;;;;;33.49;18.13086;936.5405;;;;
2020/04/18 09:06:33;;;;;;;6.4;2.3;;;;;;;34.25;17.60742;936.5303;;;;
2020/04/18 09:08:57;;;;;;;6.9;2;;;;;;;34.48;17.72461;936.5507;;;;
2020/04/18 09:11:23;;;;;;;6.3;2.5;;;;;;;34.91;18.39355;936.4899;;;;
2020/04/18 09:13:48;;;;;;;10.6;2.7;;;;;;;35.21;18.21191;936.5268;;;;
2020/04/18 09:16:13;;;;;;;7.5;2.4;;;;;;;35.43;17.29102;936.5087;;;;
2020/04/18 09:18:38;;;;;;;79.8;23.4;;;;;;;35.86;17.46387;936.4851;;;;
2020/04/18 09:21:03;;;;;;;6.1;2.5;;;;;;;35.61;17.96191;936.4138;;;;
2020/04/18 09:23:29;;;;;;;13.4;4.5;;;;;;;36.47;16.83398;936.4509;;;;
2020/04/18 09:25:54;;;;;;;10.3;2.7;;;;;;;36.5;16.79883;936.3734;;;;
2020/04/18 09:28:19;;;;;;;10.3;2.6;;;;;;;36.11;16.99023;936.4278;;;;
2020/04/18 09:30:44;;;;;;;7.1;2.3;;;;;;;35.49;17.06348;936.3775;;;;
2020/04/18 09:33:09;;;;;;;11.8;2.4;;;;;;;34.6;18.24805;936.3786;;;;
2020/04/18 09:35:38;;;;;;;10.6;2.4;;;;;;;33.19;19.62109;936.3503;;;;
2020/04/18 09:38:03;;;;;;;7.4;2.4;;;;;;;32.33;19.78809;936.3803;;;;
2020/04/18 09:40:29;;;;;;;9.8;2.5;;;;;;;31.91;21.69922;936.3536;;;;
2020/04/18 09:42:54;;;;;;;11;2.3;;;;;;;31.33;21.89844;936.3393;;;;
2020/04/18 09:45:19;;;;;;;10.2;2.3;;;;;;;31.34;22.98828;936.3458;;;;
2020/04/18 09:47:50;;;;;;;6.9;2;;;;;;;31.99;22.27832;936.3495;;;;
2020/04/18 09:50:15;;;;;;;7.4;2.1;;;;;;;32.27;21.83594;936.322;;;;
2020/04/18 09:52:42;;;;;;;7.5;2.2;;;;;;;32.58;20.69922;936.2556;;;;
2020/04/18 09:55:07;;;;;;;6.2;2.3;;;;;;;32.06;19.7168;936.2119;;;;
2020/04/18 09:57:38;;;;;;;7.4;2.2;;;;;;;32;20.33691;936.2009;;;;
2020/04/18 10:00:03;;;;;;;6.2;2.1;;;;;;;31.69;20.74219;936.1516;;;;
2020/04/18 10:02:28;;;;;;;8.4;2.3;;;;;;;31.17;21.28027;936.1945;;;;
2020/04/18 10:04:53;;;;;;;9.3;2.1;;;;;;;30.67;20.56348;936.2001;;;;
2020/04/18 10:07:18;;;;;;;6.9;2.4;;;;;;;30.37;22.60449;936.1816;;;;
2020/04/18 10:09:44;;;;;;;8.4;2.2;;;;;;;29.58;24.12695;936.2191;;;;
2020/04/18 10:12:09;;;;;;;8.3;2.3;;;;;;;29.23;23.3457;936.1594;;;;
2020/04/18 10:14:34;;;;;;;8;2.2;;;;;;;28.59;23.63379;936.1373;;;;
2020/04/18 10:17:01;;;;;;;12;2.7;;;;;;;27.57;26.32129;936.2503;;;;
2020/04/18 10:19:26;;;;;;;9.8;2.8;;;;;;;27.01;27.24902;936.2609;;;;
2020/04/18 10:21:51;;;;;;;11;3;;;;;;;26.21;28.65625;936.2836;;;;
2020/04/18 10:24:19;;;;;;;10.6;3;;;;;;;25.86;29.46094;936.2525;;;;
2020/04/18 10:26:44;;;;;;;9.8;2.8;;;;;;;25.51;30.89063;936.2598;;;;
2020/04/18 10:29:09;;;;;;;7.9;2.8;;;;;;;25.25;31.69922;936.236;;;;
2020/04/18 10:31:35;;;;;;;10.5;3.1;;;;;;;25.18;31.18652;936.1512;;;;
2020/04/18 10:34:00;;;;;;;8.5;2.9;;;;;;;25.15;30.86621;936.1668;;;;
2020/04/18 10:36:25;;;;;;;9.2;2.9;;;;;;;25.3;30.88867;936.2099;;;;
2020/04/18 10:38:52;;;;;;;8.6;2.8;;;;;;;25.09;31.91211;936.2537;;;;
2020/04/18 10:41:17;;;;;;;7.8;2.7;;;;;;;25.11;31.64258;936.2028;;;;
2020/04/18 10:43:43;;;;;;;10.4;2.7;;;;;;;25.41;31.43945;936.1976;;;;
2020/04/18 10:46:09;;;;;;;9.2;2.9;;;;;;;25.77;31.7832;936.1376;;;;
2020/04/18 10:48:35;;;;;;;9.7;2.7;;;;;;;26.91;30.43066;936.1223;;;;
2020/04/18 10:51:00;;;;;;;9;2.6;;;;;;;28.12;29.98926;936.0673;;;;
2020/04/18 10:53:27;;;;;;;12;2.4;;;;;;;28.57;28.22363;936.0636;;;;
2020/04/18 10:55:52;;;;;;;10.3;2.6;;;;;;;29.16;26.81934;936.0247;;;;
2020/04/18 10:58:21;;;;;;;14.4;2.6;;;;;;;29.15;26.41406;935.9965;;;;
2020/04/18 11:00:46;;;;;;;8.5;2.3;;;;;;;29.59;25.52148;935.9843;;;;
2020/04/18 11:03:12;;;;;;;5.3;2;;;;;;;29.92;26.4707;936.0356;;;;
2020/04/18 11:05:37;;;;;;;9.9;2.5;;;;;;;30.73;23.10059;935.9448;;;;
2020/04/18 11:08:02;;;;;;;7;2.4;;;;;;;31.04;24.32422;935.9498;;;;
2020/04/18 11:10:27;;;;;;;6.2;2.5;;;;;;;31;23.93945;935.9345;;;;
2020/04/18 11:12:52;;;;;;;13.8;3.1;;;;;;;31.1;25.41602;935.947;;;;
2020/04/18 11:15:17;;;;;;;10;2.7;;;;;;;31.28;23.34375;935.9175;;;;
2020/04/18 11:17:42;;;;;;;9.5;2.5;;;;;;;31.04;23.34375;935.892;;;;
2020/04/18 11:20:07;;;;;;;11.5;2.8;;;;;;;30.4;23.86035;935.9345;;;;
2020/04/18 11:22:33;;;;;;;12.9;3;;;;;;;29.64;25.70313;935.9785;;;;
2020/04/18 11:24:58;;;;;;;9.6;2.7;;;;;;;28.52;27.28125;935.9109;;;;
2020/04/18 11:27:23;;;;;;;11.9;2.5;;;;;;;27.88;29.22559;935.8985;;;;
2020/04/18 11:29:48;;;;;;;12.8;2.7;;;;;;;28.15;26.55762;935.8608;;;;
2020/04/18 11:32:13;;;;;;;9.8;2.6;;;;;;;27.94;26.03418;935.8332;;;;
2020/04/18 11:34:38;;;;;;;11.5;2.4;;;;;;;27.67;27.87109;935.7823;;;;
2020/04/18 11:37:03;;;;;;;7;2.3;;;;;;;28.02;27.76074;935.8033;;;;
2020/04/18 11:39:29;;;;;;;11.1;2.6;;;;;;;29.17;26.56934;935.8069;;;;
2020/04/18 11:41:54;;;;;;;7.6;2.5;;;;;;;30.19;24.39844;935.8613;;;;
2020/04/18 11:44:19;;;;;;;10.4;2.6;;;;;;;30.68;24.31641;935.7639;;;;
2020/04/18 11:46:44;;;;;;;11.4;2.5;;;;;;;31.05;24.10938;935.8099;;;;
2020/04/18 11:49:09;;;;;;;8.8;2.6;;;;;;;31.69;22.77832;935.7913;;;;
2020/04/18 11:51:34;;;;;;;11.4;2.5;;;;;;;31.78;22.86719;935.7828;;;;
2020/04/18 11:53:59;;;;;;;6.6;2.2;;;;;;;31.98;22.3252;935.8416;;;;
2020/04/18 11:56:27;;;;;;;6.2;2.4;;;;;;;32.19;23.11523;935.7736;;;;
2020/04/18 11:58:52;;;;;;;9.4;2.4;;;;;;;32.47;21.85742;935.8193;;;;
2020/04/18 12:01:19;;;;;;;8.8;2.6;;;;;;;31.85;22.21094;935.8356;;;;
2020/04/18 12:03:44;;;;;;;9.8;2.6;;;;;;;31.87;24.10547;935.8225;;;;
2020/04/18 12:06:11;;;;;;;8.5;2.5;;;;;;;32.93;20.71484;935.7969;;;;
2020/04/18 12:08:36;;;;;;;9.8;2.3;;;;;;;33.72;19.89648;935.8223;;;;
2020/04/18 12:11:03;;;;;;;9.7;2.8;;;;;;;34.36;19.38281;935.7932;;;;
2020/04/18 12:13:28;;;;;;;11.6;2.5;;;;;;;34.24;19.7627;935.764;;;;
2020/04/18 12:15:58;;;;;;;10.2;2.6;;;;;;;32.92;21.50684;935.752;;;;
2020/04/18 12:18:23;;;;;;;7.8;2.6;;;;;;;32.75;21.84766;935.7416;;;;
2020/04/18 12:20:48;;;;;;;14.7;2.5;;;;;;;32.46;23.30859;935.7315;;;;
2020/04/18 12:23:13;;;;;;;11;2.6;;;;;;;31.88;23.63867;935.7723;;;;
2020/04/18 12:25:39;;;;;;;11.7;2.3;;;;;;;31.15;22.7998;935.742;;;;
2020/04/18 12:28:04;;;;;;;8.9;2.1;;;;;;;30.28;24.91602;935.6973;;;;
2020/04/18 12:30:31;;;;;;;9.9;2.4;;;;;;;30.2;23.79004;935.6878;;;;
2020/04/18 12:32:58;;;;;;;8.5;2.6;;;;;;;29.57;24.69824;935.6883;;;;
2020/04/18 12:35:21;;;;;;;8.2;2.4;;;;;;;28.74;26.69922;935.6309;;;;
2020/04/18 12:37:46;;;;;;;10.6;2.4;;;;;;;27.86;28.83203;935.6866;;;;
2020/04/18 12:40:12;;;;;;;7;2.6;;;;;;;26.85;29.83301;935.7022;;;;
2020/04/18 12:42:37;;;;;;;11.5;2.8;;;;;;;26.43;31.03711;935.6183;;;;
2020/04/18 12:45:02;;;;;;;8.8;2.4;;;;;;;25.96;31.09863;935.7029;;;;
2020/04/18 12:47:28;;;;;;;10.1;2.5;;;;;;;25.67;31.30371;935.6859;;;;
2020/04/18 12:49:53;;;;;;;10.7;2.8;;;;;;;25.74;32.5498;935.7192;;;;
2020/04/18 12:52:18;;;;;;;10.6;2.8;;;;;;;25.71;32.32324;935.7158;;;;
2020/04/18 12:54:43;;;;;;;12.7;2.8;;;;;;;25.74;31.95801;935.7817;;;;
2020/04/18 12:57:08;;;;;;;15.9;3;;;;;;;25.73;33.56543;935.7456;;;;
2020/04/18 12:59:34;;;;;;;13;3.3;;;;;;;25.59;35.91699;935.8038;;;;
2020/04/18 13:01:59;;;;;;;12.3;3.3;;;;;;;25.24;38.71094;935.7992;;;;
2020/04/18 13:04:24;;;;;;;15.2;3.3;;;;;;;25.11;42.86719;935.7562;;;;
2020/04/18 13:06:49;;;;;;;11;3.6;;;;;;;25.2;48.03418;935.7101;;;;
2020/04/18 13:09:14;;;;;;;11.9;3.4;;;;;;;24.74;50.24805;935.7807;;;;
2020/04/18 13:11:40;;;;;;;13.8;4.1;;;;;;;24.65;52.63086;935.697;;;;
2020/04/18 13:14:05;;;;;;;13.8;4;;;;;;;24.55;54.08105;935.6782;;;;
2020/04/18 13:16:30;;;;;;;11.1;3.8;;;;;;;24.24;54.98633;935.6281;;;;
2020/04/18 13:18:55;;;;;;;12.4;3.9;;;;;;;24.04;54.84375;935.6682;;;;
2020/04/18 13:21:20;;;;;;;11;3.6;;;;;;;23.87;54.88184;935.6368;;;;
2020/04/18 13:23:46;;;;;;;10;3.7;;;;;;;23.86;53.57422;935.664;;;;
2020/04/18 13:26:11;;;;;;;11.6;3.6;;;;;;;24.09;54.22559;935.6364;;;;
2020/04/18 13:28:38;;;;;;;9.8;3.5;;;;;;;24.1;52.27246;935.6336;;;;
2020/04/18 13:31:03;;;;;;;10.4;3.3;;;;;;;23.95;49.5;935.5429;;;;
2020/04/18 13:33:30;;;;;;;10.4;3.4;;;;;;;23.97;45.62988;935.5831;;;;
2020/04/18 13:35:55;;;;;;;9.6;3.2;;;;;;;23.98;44.09961;935.6183;;;;
2020/04/18 13:38:22;;;;;;;14.6;3.7;;;;;;;23.85;50.7373;935.5311;;;;
2020/04/18 13:40:47;;;;;;;15.2;3.8;;;;;;;23.78;50.69336;935.5415;;;;
2020/04/18 13:43:13;;;;;;;10.3;3.5;;;;;;;23.46;53.4668;935.5041;;;;
2020/04/18 13:45:38;;;;;;;14.2;3.7;;;;;;;23.29;54.53906;935.5179;;;;
2020/04/18 13:48:05;;;;;;;11.6;3.8;;;;;;;22.83;55.8457;935.5281;;;;
2020/04/18 13:50:30;;;;;;;11.5;3.5;;;;;;;22.7;55.89941;935.5396;;;;
2020/04/18 13:52:57;;;;;;;12.3;3.7;;;;;;;22.78;53.03418;935.5255;;;;
2020/04/18 13:55:23;;;;;;;10.7;3.4;;;;;;;23.01;52.49707;935.5709;;;;
2020/04/18 13:57:49;;;;;;;13.4;3.2;;;;;;;23.29;49.58008;935.5818;;;;
2020/04/18 14:00:14;;;;;;;12.7;3.4;;;;;;;23.43;51.2168;935.5552;;;;
2020/04/18 14:02:42;;;;;;;13.9;3.6;;;;;;;23.52;47.74707;935.5657;;;;
2020/04/18 14:05:07;;;;;;;13.5;3.9;;;;;;;23.02;50.6416;935.5209;;;;
2020/04/18 14:07:34;;;;;;;11.2;3.9;;;;;;;22.78;51.15527;935.4807;;;;
2020/04/18 14:09:59;;;;;;;11.5;3.8;;;;;;;22.84;53.08789;935.4943;;;;
2020/04/18 14:12:24;;;;;;;13.3;4.7;;;;;;;22.98;53.29199;935.4828;;;;
2020/04/18 14:14:49;;;;;;;12.3;4.1;;;;;;;23.03;53.32227;935.4412;;;;